Time;durP1;ratioP1;P1;durP2;ratioP2;P2;SDS_P1;SDS_P2;PMS_P1;PMS_P2;Temp;Humidity;BMP_temperature;BMP_pressure;BME280_temperature;BME280_humidity;BME280_pressure;Samples;Min_cycle;Max_cycle;Signal;HPM_P1;HPM_P2
2021/12/27 00:02:21;;;;;;;;;;;21.20;54.30;;;;;;5036274;28;19924;-68
2021/12/27 00:04:47;;;;;;;;;;;21.10;54.30;;;;;;5039819;28;20463;-67
2021/12/27 00:07:14;;;;;;;;;;;21.10;54.30;;;;;;5037301;28;19909;-65
2021/12/27 00:09:40;;;;;;;;;;;21.10;54.30;;;;;;5042458;28;19923;-65
2021/12/27 00:12:06;;;;;;;;;;;21.10;54.30;;;;;;5042854;28;20404;-65
2021/12/27 00:14:31;;;;;;;;;;;21.10;54.30;;;;;;5042444;28;19912;-68
2021/12/27 00:16:57;;;;;;;;;;;21.10;54.40;;;;;;5040651;28;19923;-69
2021/12/27 00:19:22;;;;;;;;;;;21.10;54.40;;;;;;5046914;28;19978;-68
2021/12/27 00:21:48;;;;;;;;;;;21.10;54.50;;;;;;5037982;28;19916;-69
2021/12/27 00:24:14;;;;;;;;;;;21.10;54.50;;;;;;5045171;28;19966;-69
2021/12/27 00:26:40;;;;;;;;;;;21.10;54.50;;;;;;5044811;28;19921;-66
2021/12/27 00:29:08;;;;;;;;;;;21.00;54.40;;;;;;5046102;28;19924;-69
2021/12/27 00:31:33;;;;;;;;;;;21.00;54.40;;;;;;5045103;28;19934;-69
2021/12/27 00:33:59;;;;;;;;;;;21.00;54.40;;;;;;5043259;28;19933;-68
2021/12/27 00:36:24;;;;;;;;;;;21.00;54.40;;;;;;5040864;28;19923;-66
2021/12/27 00:38:50;;;;;;;;;;;21.00;54.40;;;;;;5043240;28;19917;-66
2021/12/27 00:41:18;;;;;;;;;;;21.00;54.30;;;;;;5048235;28;20406;-64
2021/12/27 00:43:44;;;;;;;;;;;21.00;54.30;;;;;;5044330;28;19931;-66
2021/12/27 00:46:09;;;;;;;;;;;21.00;54.30;;;;;;5045014;28;19908;-66
2021/12/27 00:48:35;;;;;;;;;;;21.00;54.30;;;;;;5046040;28;20011;-65
2021/12/27 00:51:00;;;;;;;;;;;20.90;54.20;;;;;;5044035;28;19917;-67
2021/12/27 00:53:26;;;;;;;;;;;20.90;54.20;;;;;;5042639;28;19920;-65
2021/12/27 00:55:51;;;;;;;;;;;20.90;54.20;;;;;;5043067;28;20432;-65
2021/12/27 00:58:17;;;;;;;;;;;20.90;54.20;;;;;;5044041;28;19952;-68
2021/12/27 01:00:45;;;;;;;;;;;20.90;54.10;;;;;;5044130;28;20334;-66
2021/12/27 01:03:11;;;;;;;;;;;20.90;54.10;;;;;;5043087;28;19908;-68
2021/12/27 01:05:37;;;;;;;;;;;20.90;54.10;;;;;;5040165;28;19931;-69
2021/12/27 01:08:06;;;;;;;;;;;20.90;54.10;;;;;;5043251;28;19962;-64
2021/12/27 01:15:52;;;;;;;;;;;20.90;54.10;;;;;;5044896;28;19908;-66
2021/12/27 01:18:18;;;;;;;;;;;20.80;54.00;;;;;;5044330;28;19919;-68
2021/12/27 01:20:44;;;;;;;;;;;20.80;54.00;;;;;;5041665;28;19919;-69
2021/12/27 01:23:10;;;;;;;;;;;20.80;54.00;;;;;;5040709;28;19988;-65
2021/12/27 01:25:35;;;;;;;;;;;20.80;54.00;;;;;;5043698;28;20345;-65
2021/12/27 01:28:01;;;;;;;;;;;20.80;54.00;;;;;;5044184;28;20415;-64
2021/12/27 01:30:28;;;;;;;;;;;20.80;54.00;;;;;;5041727;28;19924;-65
2021/12/27 01:32:58;;;;;;;;;;;20.80;54.00;;;;;;5034930;28;19986;-66
2021/12/27 01:35:24;;;;;;;;;;;20.70;53.90;;;;;;5042316;28;19913;-65
2021/12/27 01:37:50;;;;;;;;;;;20.70;53.90;;;;;;5040856;28;19981;-66
2021/12/27 01:40:17;;;;;;;;;;;20.70;53.90;;;;;;5044616;28;19931;-65
2021/12/27 01:43:01;;;;;;;;;;;20.70;53.90;;;;;;5043272;28;20007;-65
2021/12/27 01:45:27;;;;;;;;;;;20.70;53.90;;;;;;5040044;28;20285;-68
2021/12/27 01:47:52;;;;;;;;;;;20.70;53.90;;;;;;5043664;28;19943;-64
2021/12/27 01:50:18;;;;;;;;;;;20.70;53.90;;;;;;5044589;28;19936;-67
2021/12/27 01:52:44;;;;;;;;;;;20.70;54.40;;;;;;5037278;28;19909;-66
2021/12/27 01:55:09;;;;;;;;;;;20.70;53.90;;;;;;5044918;28;20004;-64
2021/12/27 01:57:38;;;;;;;;;;;20.60;53.90;;;;;;5045247;28;19928;-65
2021/12/27 02:00:04;;;;;;;;;;;20.60;53.80;;;;;;5041242;28;19912;-66
2021/12/27 02:02:30;;;;;;;;;;;20.60;53.80;;;;;;5041204;28;19917;-65
2021/12/27 02:04:56;;;;;;;;;;;20.60;53.90;;;;;;5036325;28;20384;-64
2021/12/27 02:07:21;;;;;;;;;;;20.60;53.80;;;;;;5038918;28;19913;-64
2021/12/27 02:09:58;;;;;;;;;;;20.60;53.90;;;;;;5040828;28;19919;-68
2021/12/27 02:12:24;;;;;;;;;;;20.60;53.90;;;;;;5043379;28;20010;-65
2021/12/27 02:14:49;;;;;;;;;;;20.60;53.90;;;;;;5037941;28;19948;-65
2021/12/27 02:17:19;;;;;;;;;;;20.60;53.90;;;;;;5044571;28;19908;-68
2021/12/27 02:19:51;;;;;;;;;;;20.60;53.80;;;;;;5046668;28;19919;-68
2021/12/27 02:22:17;;;;;;;;;;;20.50;53.80;;;;;;5039783;28;20383;-66
2021/12/27 02:24:42;;;;;;;;;;;20.50;53.80;;;;;;5044604;28;19913;-66
2021/12/27 02:27:08;;;;;;;;;;;20.50;53.80;;;;;;5045455;28;19916;-66
2021/12/27 02:29:33;;;;;;;;;;;20.50;53.80;;;;;;5044666;28;19912;-67
2021/12/27 02:31:59;;;;;;;;;;;20.50;53.80;;;;;;5039318;28;19920;-68
2021/12/27 02:34:25;;;;;;;;;;;20.50;53.80;;;;;;5043969;28;20439;-66
2021/12/27 02:36:50;;;;;;;;;;;20.50;53.80;;;;;;5038957;28;19909;-65
2021/12/27 02:39:16;;;;;;;;;;;20.40;53.80;;;;;;5045393;28;19908;-65
2021/12/27 02:41:42;;;;;;;;;;;20.40;53.80;;;;;;5041791;28;20000;-69
2021/12/27 02:44:07;;;;;;;;;;;20.50;53.80;;;;;;5043691;28;19917;-69
2021/12/27 02:46:34;;;;;;;;;;;20.40;53.80;;;;;;5048006;28;19916;-69
2021/12/27 02:48:59;;;;;;;;;;;20.40;53.70;;;;;;5046155;28;19956;-66
2021/12/27 02:51:25;;;;;;;;;;;20.40;53.70;;;;;;5041343;28;20771;-66
2021/12/27 02:53:51;;;;;;;;;;;20.40;53.80;;;;;;5042466;28;19920;-66
2021/12/27 02:56:17;;;;;;;;;;;20.40;53.70;;;;;;5046009;28;20456;-65
2021/12/27 02:58:43;;;;;;;;;;;20.40;53.80;;;;;;5048409;28;19966;-66
2021/12/27 03:01:19;;;;;;;;;;;20.40;53.80;;;;;;5045243;28;19932;-69
2021/12/27 03:03:44;;;;;;;;;;;20.40;53.80;;;;;;5045871;28;20027;-68
2021/12/27 03:06:10;;;;;;;;;;;20.40;53.80;;;;;;5046480;28;20007;-65
2021/12/27 03:08:36;;;;;;;;;;;20.40;53.80;;;;;;5043339;28;19935;-65
2021/12/27 03:11:03;;;;;;;;;;;20.40;53.80;;;;;;5042732;28;19955;-65
2021/12/27 03:13:30;;;;;;;;;;;20.40;53.80;;;;;;5047350;28;19924;-66
2021/12/27 03:15:57;;;;;;;;;;;20.40;53.80;;;;;;5046865;28;19921;-67
2021/12/27 03:18:22;;;;;;;;;;;20.40;53.80;;;;;;5046197;28;19915;-65
2021/12/27 03:20:48;;;;;;;;;;;20.30;53.70;;;;;;5046640;28;20163;-66
2021/12/27 03:23:14;;;;;;;;;;;20.30;53.80;;;;;;5045083;28;20493;-69
2021/12/27 03:25:40;;;;;;;;;;;20.30;53.80;;;;;;5046766;28;19912;-66
2021/12/27 03:28:06;;;;;;;;;;;20.30;53.80;;;;;;5045208;28;20606;-69
2021/12/27 03:30:31;;;;;;;;;;;20.30;53.80;;;;;;5048366;28;20321;-65
2021/12/27 03:32:57;;;;;;;;;;;20.30;53.80;;;;;;5045091;28;19952;-69
2021/12/27 03:35:28;;;;;;;;;;;20.30;53.80;;;;;;5041585;28;20085;-66
2021/12/27 03:37:58;;;;;;;;;;;20.30;53.80;;;;;;5045846;28;19998;-65
2021/12/27 03:40:24;;;;;;;;;;;20.30;53.80;;;;;;5041467;28;19916;-65
2021/12/27 03:42:50;;;;;;;;;;;20.30;53.80;;;;;;5044400;28;20391;-69
2021/12/27 03:45:16;;;;;;;;;;;20.30;53.90;;;;;;5046169;28;19916;-66
2021/12/27 03:47:42;;;;;;;;;;;20.30;53.90;;;;;;5045378;28;20361;-69
2021/12/27 03:50:08;;;;;;;;;;;20.30;53.90;;;;;;5041330;28;19913;-67
2021/12/27 03:52:33;;;;;;;;;;;20.30;53.90;;;;;;5044849;28;20691;-64
2021/12/27 03:54:59;;;;;;;;;;;20.20;53.90;;;;;;5046273;28;19992;-65
2021/12/27 03:57:24;;;;;;;;;;;20.30;53.90;;;;;;5044163;28;20434;-65
2021/12/27 04:00:14;;;;;;;;;;;20.20;53.90;;;;;;5045212;28;19969;-65
2021/12/27 04:02:37;;;;;;;;;;;20.20;53.90;;;;;;5045882;28;19974;-65
2021/12/27 04:05:03;;;;;;;;;;;20.20;53.90;;;;;;5043225;28;20010;-65
2021/12/27 04:07:33;;;;;;;;;;;20.20;53.90;;;;;;5042269;28;19923;-65
2021/12/27 04:09:59;;;;;;;;;;;20.20;53.90;;;;;;5043042;28;19920;-65
2021/12/27 04:12:24;;;;;;;;;;;20.20;53.90;;;;;;5046630;28;19912;-67
2021/12/27 04:14:50;;;;;;;;;;;20.20;54.00;;;;;;5045626;28;19978;-65
2021/12/27 04:17:15;;;;;;;;;;;20.20;54.00;;;;;;5045586;28;20010;-68
2021/12/27 04:19:40;;;;;;;;;;;20.20;54.00;;;;;;5046869;28;19913;-65
2021/12/27 04:22:06;;;;;;;;;;;20.20;54.00;;;;;;5042780;28;20006;-69
2021/12/27 04:24:31;;;;;;;;;;;20.20;54.00;;;;;;5047138;28;19928;-66
2021/12/27 04:26:57;;;;;;;;;;;20.20;54.00;;;;;;5042499;28;19909;-65
2021/12/27 04:29:22;;;;;;;;;;;20.20;54.00;;;;;;5042744;28;19952;-65
2021/12/27 04:31:48;;;;;;;;;;;20.20;54.00;;;;;;5043092;28;19943;-65
2021/12/27 04:34:13;;;;;;;;;;;20.20;54.00;;;;;;5046324;28;20031;-66
2021/12/27 04:36:39;;;;;;;;;;;20.20;54.00;;;;;;5040282;28;19944;-68
2021/12/27 04:39:05;;;;;;;;;;;20.20;54.00;;;;;;5042443;28;20099;-65
2021/12/27 04:41:30;;;;;;;;;;;20.10;54.00;;;;;;5042683;28;19923;-66
2021/12/27 04:43:56;;;;;;;;;;;20.10;54.00;;;;;;5044629;28;19913;-66
2021/12/27 04:46:21;;;;;;;;;;;20.10;54.00;;;;;;5045323;28;20503;-68
2021/12/27 04:48:51;;;;;;;;;;;20.10;54.00;;;;;;5047430;28;19909;-66
2021/12/27 04:51:16;;;;;;;;;;;20.10;54.00;;;;;;5042429;28;19917;-66
2021/12/27 04:53:42;;;;;;;;;;;20.10;54.00;;;;;;5044830;28;20284;-65
2021/12/27 04:56:07;;;;;;;;;;;20.10;54.00;;;;;;5044907;28;19909;-66
2021/12/27 04:58:33;;;;;;;;;;;20.10;54.10;;;;;;5044701;28;19916;-65
2021/12/27 05:00:58;;;;;;;;;;;20.10;54.00;;;;;;5041227;28;19993;-65
2021/12/27 05:03:24;;;;;;;;;;;20.10;54.10;;;;;;5041466;28;19913;-66
2021/12/27 05:05:49;;;;;;;;;;;20.10;54.10;;;;;;5045390;28;20350;-66
2021/12/27 05:08:15;;;;;;;;;;;20.10;54.10;;;;;;5037266;28;19967;-64
2021/12/27 05:10:40;;;;;;;;;;;20.10;54.10;;;;;;5044710;28;19939;-65
2021/12/27 05:13:06;;;;;;;;;;;20.10;54.10;;;;;;5043400;28;19913;-69
2021/12/27 05:15:31;;;;;;;;;;;20.10;54.10;;;;;;5045680;28;19912;-65
2021/12/27 05:17:57;;;;;;;;;;;20.10;54.10;;;;;;5045185;28;19913;-69
2021/12/27 05:20:22;;;;;;;;;;;20.10;54.20;;;;;;5039236;28;20229;-64
2021/12/27 05:22:48;;;;;;;;;;;20.00;54.10;;;;;;5043154;28;19923;-66
2021/12/27 05:25:16;;;;;;;;;;;20.10;54.10;;;;;;5045100;28;19912;-65
2021/12/27 05:27:42;;;;;;;;;;;20.00;54.10;;;;;;5043479;28;19920;-68
2021/12/27 05:30:08;;;;;;;;;;;20.00;54.10;;;;;;5045561;28;20469;-65
2021/12/27 05:32:35;;;;;;;;;;;20.00;54.20;;;;;;5038260;28;19978;-69
2021/12/27 05:35:04;;;;;;;;;;;20.00;54.20;;;;;;5044597;28;19934;-66
2021/12/27 05:37:30;;;;;;;;;;;20.00;54.20;;;;;;5042936;28;20360;-69
2021/12/27 05:39:57;;;;;;;;;;;20.00;54.20;;;;;;5042164;28;19913;-65
2021/12/27 05:42:23;;;;;;;;;;;20.00;54.20;;;;;;5045451;28;19908;-68
2021/12/27 05:44:48;;;;;;;;;;;20.00;54.20;;;;;;5043840;28;19970;-66
2021/12/27 05:47:13;;;;;;;;;;;20.00;54.20;;;;;;5044853;28;20000;-68
2021/12/27 05:49:39;;;;;;;;;;;20.00;54.30;;;;;;5045215;28;19913;-64
2021/12/27 05:52:05;;;;;;;;;;;19.90;54.30;;;;;;5039510;28;19930;-66
2021/12/27 05:54:30;;;;;;;;;;;20.00;54.30;;;;;;5044078;28;19965;-65
2021/12/27 05:56:56;;;;;;;;;;;20.00;54.30;;;;;;5044411;28;20011;-69
2021/12/27 05:59:21;;;;;;;;;;;19.90;54.30;;;;;;5042177;28;19966;-66
2021/12/27 06:01:47;;;;;;;;;;;19.90;54.30;;;;;;5043737;28;19924;-64
2021/12/27 06:04:12;;;;;;;;;;;19.90;54.30;;;;;;5041562;28;19912;-66
2021/12/27 06:06:38;;;;;;;;;;;19.90;54.30;;;;;;5039993;28;19916;-65
2021/12/27 06:09:04;;;;;;;;;;;19.90;54.30;;;;;;5039865;28;19923;-65
2021/12/27 06:11:30;;;;;;;;;;;19.90;54.30;;;;;;5042035;28;19917;-65
2021/12/27 06:13:55;;;;;;;;;;;19.90;54.30;;;;;;5041354;28;20265;-69
2021/12/27 06:16:21;;;;;;;;;;;19.90;54.30;;;;;;5041175;28;19960;-69
2021/12/27 06:18:47;;;;;;;;;;;19.90;54.40;;;;;;5041192;28;19908;-65
2021/12/27 06:21:12;;;;;;;;;;;19.90;54.30;;;;;;5034005;28;19913;-66
2021/12/27 06:23:38;;;;;;;;;;;19.90;54.30;;;;;;5038092;28;20122;-65
2021/12/27 06:26:04;;;;;;;;;;;19.90;54.30;;;;;;5038435;28;20263;-66
2021/12/27 06:28:31;;;;;;;;;;;19.90;54.40;;;;;;5042820;28;19924;-64
2021/12/27 06:30:57;;;;;;;;;;;19.90;54.30;;;;;;5037429;28;20342;-65
2021/12/27 06:33:23;;;;;;;;;;;19.90;54.40;;;;;;5037081;28;20315;-68
2021/12/27 06:35:48;;;;;;;;;;;19.90;54.40;;;;;;5038884;28;19967;-65
2021/12/27 06:38:14;;;;;;;;;;;19.80;54.30;;;;;;5041888;28;19908;-67
2021/12/27 06:40:39;;;;;;;;;;;19.90;54.40;;;;;;5039949;28;19916;-68
2021/12/27 06:43:05;;;;;;;;;;;19.90;54.40;;;;;;5040335;28;19917;-65
2021/12/27 06:45:30;;;;;;;;;;;19.80;54.30;;;;;;5041035;28;20345;-65
2021/12/27 06:47:56;;;;;;;;;;;19.90;54.40;;;;;;5040956;28;19905;-69
2021/12/27 06:50:23;;;;;;;;;;;19.80;54.30;;;;;;5043764;28;19913;-69
2021/12/27 06:52:48;;;;;;;;;;;19.80;54.30;;;;;;5039547;28;19925;-69
2021/12/27 06:55:14;;;;;;;;;;;19.80;54.30;;;;;;5041460;28;19923;-66
2021/12/27 06:57:40;;;;;;;;;;;19.80;54.30;;;;;;5043639;28;19966;-68
2021/12/27 07:00:07;;;;;;;;;;;19.80;54.30;;;;;;5042683;28;19913;-66
2021/12/27 07:02:33;;;;;;;;;;;19.80;54.40;;;;;;5037197;28;19995;-65
2021/12/27 07:04:58;;;;;;;;;;;19.80;54.40;;;;;;5042062;28;19917;-66
2021/12/27 07:07:24;;;;;;;;;;;19.80;54.30;;;;;;5035329;28;19919;-66
2021/12/27 07:09:49;;;;;;;;;;;19.80;54.30;;;;;;5046570;28;19978;-65
2021/12/27 07:12:15;;;;;;;;;;;19.80;54.30;;;;;;5040291;28;19964;-67
2021/12/27 07:14:41;;;;;;;;;;;19.80;54.40;;;;;;5040222;28;19917;-66
2021/12/27 07:17:07;;;;;;;;;;;19.80;54.40;;;;;;5041878;28;19924;-68
2021/12/27 07:19:32;;;;;;;;;;;19.80;54.40;;;;;;5041287;28;20340;-66
2021/12/27 07:21:58;;;;;;;;;;;19.80;54.40;;;;;;5037125;28;19916;-66
2021/12/27 07:24:23;;;;;;;;;;;19.80;54.40;;;;;;5044388;28;19913;-66
2021/12/27 07:26:49;;;;;;;;;;;19.80;54.40;;;;;;5042610;28;19916;-66
2021/12/27 07:29:14;;;;;;;;;;;19.80;54.40;;;;;;5044174;28;19913;-68
2021/12/27 07:31:40;;;;;;;;;;;19.80;54.40;;;;;;5044617;28;19921;-68
2021/12/27 07:34:05;;;;;;;;;;;19.80;54.40;;;;;;5045132;28;19909;-66
2021/12/27 07:36:31;;;;;;;;;;;19.80;54.40;;;;;;5044422;28;20740;-66
2021/12/27 07:38:57;;;;;;;;;;;19.80;54.40;;;;;;5047005;28;19909;-65
2021/12/27 07:41:23;;;;;;;;;;;19.80;54.40;;;;;;5046080;28;20797;-68
2021/12/27 07:43:48;;;;;;;;;;;19.80;54.40;;;;;;5044875;28;20003;-66
2021/12/27 07:46:14;;;;;;;;;;;19.80;54.40;;;;;;5046306;28;19955;-68
2021/12/27 07:48:39;;;;;;;;;;;19.80;54.40;;;;;;5046687;28;19966;-66
2021/12/27 07:51:05;;;;;;;;;;;19.80;54.40;;;;;;5046511;28;19981;-67
2021/12/27 07:53:31;;;;;;;;;;;19.80;54.40;;;;;;5045278;28;20644;-64
2021/12/27 07:55:56;;;;;;;;;;;19.80;54.40;;;;;;5046967;28;20460;-66
2021/12/27 07:58:27;;;;;;;;;;;19.80;54.40;;;;;;5045503;28;19977;-66
2021/12/27 08:00:54;;;;;;;;;;;19.80;54.30;;;;;;5044471;28;19964;-66
2021/12/27 08:03:20;;;;;;;;;;;19.80;54.40;;;;;;5046563;28;19912;-66
2021/12/27 08:05:46;;;;;;;;;;;19.80;54.40;;;;;;5042731;28;19916;-66
2021/12/27 08:08:12;;;;;;;;;;;19.80;54.30;;;;;;5042395;28;19913;-68
2021/12/27 08:10:37;;;;;;;;;;;19.80;54.30;;;;;;5042871;28;19994;-66
2021/12/27 08:13:04;;;;;;;;;;;19.80;54.40;;;;;;5043769;28;19920;-68
2021/12/27 08:15:29;;;;;;;;;;;19.80;54.30;;;;;;5044038;28;19959;-68
2021/12/27 08:17:55;;;;;;;;;;;19.80;54.30;;;;;;5041782;28;19944;-66
2021/12/27 08:20:20;;;;;;;;;;;19.80;54.30;;;;;;5044120;28;20011;-68
2021/12/27 08:22:46;;;;;;;;;;;19.80;54.80;;;;;;5042535;28;19913;-68
2021/12/27 08:25:11;;;;;;;;;;;19.80;54.30;;;;;;5046210;28;20364;-65
2021/12/27 08:27:38;;;;;;;;;;;19.70;54.20;;;;;;5044219;28;19912;-65
2021/12/27 08:30:05;;;;;;;;;;;19.80;54.20;;;;;;5043623;28;19917;-66
2021/12/27 08:32:31;;;;;;;;;;;19.70;54.20;;;;;;5046160;28;19916;-66
2021/12/27 08:34:57;;;;;;;;;;;19.70;54.20;;;;;;5042948;28;20335;-64
2021/12/27 08:37:23;;;;;;;;;;;19.70;54.10;;;;;;5041234;28;19939;-68
2021/12/27 08:39:48;;;;;;;;;;;19.70;54.10;;;;;;5046168;28;20511;-68
2021/12/27 08:42:14;;;;;;;;;;;19.70;54.10;;;;;;5042378;28;19921;-66
2021/12/27 08:44:39;;;;;;;;;;;19.70;54.10;;;;;;5042541;28;20810;-68
2021/12/27 08:47:05;;;;;;;;;;;19.80;54.20;;;;;;5045860;28;19921;-65
2021/12/27 08:49:31;;;;;;;;;;;19.70;54.10;;;;;;5045496;28;19955;-65
2021/12/27 08:51:56;;;;;;;;;;;19.70;54.10;;;;;;5043628;28;20418;-66
2021/12/27 08:54:22;;;;;;;;;;;19.70;54.00;;;;;;5041865;28;20012;-66
2021/12/27 08:56:47;;;;;;;;;;;19.70;54.00;;;;;;5043220;28;19912;-64
2021/12/27 08:59:13;;;;;;;;;;;19.70;54.00;;;;;;5046838;28;20004;-68
2021/12/27 09:01:39;;;;;;;;;;;19.70;53.90;;;;;;5042200;28;20013;-68
2021/12/27 09:04:04;;;;;;;;;;;19.70;53.90;;;;;;5038876;28;19940;-66
2021/12/27 09:06:33;;;;;;;;;;;19.70;53.90;;;;;;5038228;28;19927;-66
2021/12/27 09:08:59;;;;;;;;;;;19.70;53.90;;;;;;5042618;28;19923;-65
2021/12/27 09:11:25;;;;;;;;;;;19.70;53.80;;;;;;5041981;28;19920;-63
2021/12/27 09:13:50;;;;;;;;;;;19.70;53.80;;;;;;5042321;28;19924;-66
2021/12/27 09:16:16;;;;;;;;;;;19.70;53.80;;;;;;5041701;28;19919;-66
2021/12/27 09:18:41;;;;;;;;;;;19.70;53.70;;;;;;5046048;28;19909;-67
2021/12/27 09:21:07;;;;;;;;;;;19.70;53.70;;;;;;5045608;28;20564;-64
2021/12/27 09:23:32;;;;;;;;;;;19.70;53.70;;;;;;5041834;28;19931;-66
2021/12/27 09:25:58;;;;;;;;;;;19.70;53.70;;;;;;5039824;28;19923;-66
2021/12/27 09:28:23;;;;;;;;;;;19.70;53.70;;;;;;5044216;28;19923;-69
2021/12/27 09:30:49;;;;;;;;;;;19.70;53.70;;;;;;5045157;28;19943;-65
2021/12/27 09:33:15;;;;;;;;;;;19.70;53.70;;;;;;5045709;28;19909;-68
2021/12/27 09:35:40;;;;;;;;;;;19.60;53.60;;;;;;5042050;28;19981;-66
2021/12/27 09:38:06;;;;;;;;;;;19.70;53.60;;;;;;5042974;28;20426;-65
2021/12/27 09:40:32;;;;;;;;;;;19.70;53.60;;;;;;5046119;28;19909;-64
2021/12/27 09:42:57;;;;;;;;;;;19.70;53.60;;;;;;5042901;28;20382;-68
2021/12/27 09:45:23;;;;;;;;;;;19.70;53.70;;;;;;5041328;28;19920;-66
2021/12/27 09:47:51;;;;;;;;;;;19.60;53.60;;;;;;5044974;28;19931;-66
2021/12/27 09:50:27;;;;;;;;;;;19.60;53.60;;;;;;5044628;28;19971;-67
2021/12/27 09:52:53;;;;;;;;;;;19.60;53.60;;;;;;5040885;28;19909;-68
2021/12/27 09:55:19;;;;;;;;;;;19.60;53.60;;;;;;5044344;28;19995;-66
2021/12/27 09:57:44;;;;;;;;;;;19.60;53.60;;;;;;5043631;28;20548;-68
2021/12/27 10:00:10;;;;;;;;;;;19.60;53.60;;;;;;5043681;28;19975;-68
2021/12/27 10:02:37;;;;;;;;;;;19.60;53.60;;;;;;5044534;28;19951;-66
2021/12/27 10:05:03;;;;;;;;;;;19.60;53.60;;;;;;5041718;28;20528;-68
2021/12/27 10:07:29;;;;;;;;;;;19.60;53.70;;;;;;5040502;28;19985;-68
2021/12/27 10:09:55;;;;;;;;;;;19.60;53.70;;;;;;5043716;28;20648;-64
2021/12/27 10:12:22;;;;;;;;;;;19.60;53.70;;;;;;5042100;28;20389;-66
2021/12/27 10:14:53;;;;;;;;;;;19.60;53.70;;;;;;5044984;28;19916;-68
2021/12/27 10:17:18;;;;;;;;;;;19.60;53.70;;;;;;5040476;28;19904;-68
2021/12/27 10:19:44;;;;;;;;;;;19.60;53.80;;;;;;5043751;28;19913;-66
2021/12/27 10:22:11;;;;;;;;;;;19.60;53.80;;;;;;5040573;28;19920;-65
2021/12/27 10:24:38;;;;;;;;;;;19.60;53.80;;;;;;5042859;28;19908;-68
2021/12/27 10:27:03;;;;;;;;;;;19.60;53.80;;;;;;5042750;28;20294;-68
2021/12/27 10:29:30;;;;;;;;;;;19.60;53.90;;;;;;5037035;28;19984;-64
2021/12/27 10:31:57;;;;;;;;;;;19.60;53.90;;;;;;5042365;28;19917;-68
2021/12/27 10:34:24;;;;;;;;;;;19.60;53.90;;;;;;5038973;28;19909;-67
2021/12/27 10:37:04;;;;;;;;;;;19.60;53.90;;;;;;5039091;28;19919;-66
2021/12/27 10:39:42;;;;;;;;;;;19.60;54.00;;;;;;5045115;28;20368;-64
2021/12/27 10:42:09;;;;;;;;;;;19.60;54.00;;;;;;5044308;28;20047;-66
2021/12/27 10:44:35;;;;;;;;;;;19.60;54.00;;;;;;5044207;28;19953;-66
2021/12/27 10:47:01;;;;;;;;;;;19.60;54.00;;;;;;5044072;28;19908;-65
2021/12/27 10:49:46;;;;;;;;;;;19.60;54.00;;;;;;5043100;28;20003;-63
2021/12/27 10:52:11;;;;;;;;;;;19.60;54.10;;;;;;5039998;28;19916;-68
2021/12/27 10:54:37;;;;;;;;;;;19.60;54.10;;;;;;5042945;28;19920;-65
2021/12/27 10:57:03;;;;;;;;;;;19.60;54.10;;;;;;5039702;28;20324;-66
2021/12/27 10:59:29;;;;;;;;;;;19.60;54.20;;;;;;5042421;28;19962;-66
2021/12/27 11:01:55;;;;;;;;;;;19.60;54.20;;;;;;5038898;28;19928;-65
2021/12/27 11:04:21;;;;;;;;;;;19.60;54.20;;;;;;5041583;28;20345;-68
2021/12/27 11:06:48;;;;;;;;;;;19.60;54.20;;;;;;5043444;28;20011;-68
2021/12/27 11:09:16;;;;;;;;;;;19.60;54.20;;;;;;5048620;28;21972;-65
2021/12/27 11:11:41;;;;;;;;;;;19.60;54.30;;;;;;5047640;28;20323;-65
2021/12/27 11:14:07;;;;;;;;;;;19.60;54.30;;;;;;5045604;28;19917;-65
2021/12/27 11:16:33;;;;;;;;;;;19.60;54.30;;;;;;5046367;28;19916;-68
2021/12/27 11:18:58;;;;;;;;;;;19.60;54.30;;;;;;5044534;28;19939;-68
2021/12/27 11:21:30;;;;;;;;;;;19.60;54.40;;;;;;5043220;28;19913;-65
2021/12/27 11:23:55;;;;;;;;;;;19.60;54.40;;;;;;5041467;28;20138;-68
2021/12/27 11:26:22;;;;;;;;;;;19.60;54.40;;;;;;5042639;28;19988;-65
2021/12/27 11:28:49;;;;;;;;;;;19.60;54.40;;;;;;5046253;28;19959;-65
2021/12/27 11:31:23;;;;;;;;;;;19.60;54.40;;;;;;5044057;28;20304;-65
2021/12/27 11:33:53;;;;;;;;;;;19.60;55.00;;;;;;5044181;28;19931;-65
2021/12/27 11:36:20;;;;;;;;;;;19.60;54.50;;;;;;5042978;28;19909;-65
2021/12/27 11:38:45;;;;;;;;;;;19.60;54.60;;;;;;5043086;28;20205;-65
2021/12/27 11:41:26;;;;;;;;;;;19.60;54.60;;;;;;5045425;28;19919;-65
2021/12/27 11:43:53;;;;;;;;;;;19.60;54.60;;;;;;5043122;28;20454;-66
2021/12/27 11:46:20;;;;;;;;;;;19.60;54.60;;;;;;5044388;28;20361;-64
2021/12/27 11:48:47;;;;;;;;;;;19.60;54.70;;;;;;5045818;28;19952;-64
2021/12/27 11:51:13;;;;;;;;;;;19.60;54.70;;;;;;5043468;28;19939;-68
2021/12/27 11:53:45;;;;;;;;;;;19.60;54.80;;;;;;5046089;28;19912;-67
2021/12/27 11:56:14;;;;;;;;;;;19.60;54.80;;;;;;5040079;28;20457;-65
2021/12/27 11:58:44;;;;;;;;;;;19.60;54.80;;;;;;5045659;28;20011;-66
2021/12/27 12:01:21;;;;;;;;;;;19.60;54.90;;;;;;5041591;28;19960;-65
2021/12/27 12:03:47;;;;;;;;;;;19.60;54.90;;;;;;5041077;28;20352;-64
2021/12/27 12:06:31;;;;;;;;;;;19.60;54.90;;;;;;5034617;28;20107;-67
2021/12/27 12:08:57;;;;;;;;;;;19.60;55.00;;;;;;5040818;28;19951;-64
2021/12/27 12:11:31;;;;;;;;;;;19.60;55.00;;;;;;5042009;28;20324;-66
2021/12/27 12:13:57;;;;;;;;;;;19.60;55.20;;;;;;5040291;28;20002;-65
2021/12/27 12:16:23;;;;;;;;;;;19.60;55.10;;;;;;5037204;28;20842;-65
2021/12/27 12:18:51;;;;;;;;;;;19.60;55.20;;;;;;5045062;28;19916;-65
2021/12/27 12:21:35;;;;;;;;;;;19.60;55.30;;;;;;5040186;28;19905;-68
2021/12/27 12:24:04;;;;;;;;;;;19.60;55.30;;;;;;5042293;28;19954;-66
2021/12/27 12:26:45;;;;;;;;;;;19.60;55.90;;;;;;5042592;28;20222;-67
2021/12/27 12:29:10;;;;;;;;;;;19.60;55.50;;;;;;5035444;28;19916;-65
2021/12/27 12:31:36;;;;;;;;;;;19.60;55.50;;;;;;5039432;28;19925;-66
2021/12/27 12:34:12;;;;;;;;;;;19.60;55.60;;;;;;5039499;28;20377;-66
2021/12/27 12:36:52;;;;;;;;;;;19.50;55.70;;;;;;5040746;28;20058;-67
2021/12/27 12:39:19;;;;;;;;;;;19.60;55.90;;;;;;5042812;28;19908;-66
2021/12/27 12:41:45;;;;;;;;;;;19.60;55.90;;;;;;5041065;28;20617;-69
2021/12/27 12:44:10;;;;;;;;;;;19.60;56.10;;;;;;5044382;28;20443;-65
2021/12/27 12:46:40;;;;;;;;;;;19.60;56.30;;;;;;5042288;28;19908;-66
2021/12/27 12:49:07;;;;;;;;;;;19.60;56.30;;;;;;5045737;28;19908;-66
2021/12/27 12:51:34;;;;;;;;;;;19.60;56.50;;;;;;5041741;28;20047;-68
2021/12/27 12:53:59;;;;;;;;;;;19.60;56.60;;;;;;5043729;28;19990;-67
2021/12/27 12:56:30;;;;;;;;;;;19.60;56.50;;;;;;5041216;28;19912;-67
2021/12/27 12:58:55;;;;;;;;;;;19.60;56.60;;;;;;5045043;28;19917;-67
2021/12/27 13:01:21;;;;;;;;;;;19.60;56.80;;;;;;5037611;28;19917;-65
2021/12/27 13:03:46;;;;;;;;;;;19.60;56.90;;;;;;5039504;28;20825;-64
2021/12/27 13:06:12;;;;;;;;;;;19.60;56.80;;;;;;5037743;28;19913;-67
2021/12/27 13:08:37;;;;;;;;;;;19.60;56.90;;;;;;5046585;28;19923;-64
2021/12/27 13:11:03;;;;;;;;;;;19.60;56.90;;;;;;5040167;28;19943;-65
2021/12/27 13:13:30;;;;;;;;;;;19.60;56.80;;;;;;5039460;28;21279;-68
2021/12/27 13:15:57;;;;;;;;;;;19.60;57.10;;;;;;5038523;28;19939;-69
2021/12/27 13:18:23;;;;;;;;;;;19.60;57.10;;;;;;5041460;28;19916;-68
2021/12/27 13:20:50;;;;;;;;;;;19.60;57.00;;;;;;5041463;28;19917;-63
2021/12/27 13:23:19;;;;;;;;;;;19.60;57.00;;;;;;5038489;28;19908;-66
2021/12/27 13:25:47;;;;;;;;;;;19.60;57.10;;;;;;5041298;28;19916;-66
2021/12/27 13:28:29;;;;;;;;;;;19.60;56.90;;;;;;5039447;28;19948;-67
2021/12/27 13:31:07;;;;;;;;;;;19.60;57.00;;;;;;5037509;28;20355;-65
2021/12/27 13:33:36;;;;;;;;;;;19.60;57.00;;;;;;5035531;28;19936;-65
2021/12/27 13:36:03;;;;;;;;;;;19.60;56.80;;;;;;5039715;28;19935;-66
2021/12/27 13:38:30;;;;;;;;;;;19.60;56.80;;;;;;5036005;28;20003;-66
2021/12/27 13:40:57;;;;;;;;;;;19.60;56.80;;;;;;5039231;28;19920;-68
2021/12/27 13:43:23;;;;;;;;;;;19.60;56.80;;;;;;5041545;28;19913;-66
2021/12/27 13:45:49;;;;;;;;;;;19.60;56.80;;;;;;5038132;28;19947;-66
2021/12/27 13:48:15;;;;;;;;;;;19.60;57.10;;;;;;5030251;28;19927;-66
2021/12/27 13:50:42;;;;;;;;;;;19.70;57.30;;;;;;5032649;28;20399;-66
2021/12/27 13:53:17;;;;;;;;;;;19.90;56.90;;;;;;5029268;28;20263;-66
2021/12/27 13:55:43;;;;;;;;;;;20.10;56.60;;;;;;5032927;28;19967;-68
2021/12/27 13:58:17;;;;;;;;;;;20.20;56.10;;;;;;5032402;28;20257;-66
2021/12/27 14:00:43;;;;;;;;;;;20.30;55.90;;;;;;5030560;28;20034;-68
2021/12/27 14:03:29;;;;;;;;;;;20.30;55.70;;;;;;5033143;28;20608;-68
2021/12/27 14:05:56;;;;;;;;;;;20.30;55.80;;;;;;5032993;28;19955;-66
2021/12/27 14:08:23;;;;;;;;;;;20.40;56.00;;;;;;5032632;28;19935;-67
2021/12/27 14:11:04;;;;;;;;;;;20.50;55.80;;;;;;5032942;28;19926;-67
2021/12/27 14:13:48;;;;;;;;;;;20.70;55.50;;;;;;5031708;28;19913;-69
2021/12/27 14:16:25;;;;;;;;;;;20.90;55.10;;;;;;5030320;28;20081;-68
2021/12/27 14:19:00;;;;;;;;;;;21.10;54.70;;;;;;5033052;28;19973;-67
2021/12/27 14:21:26;;;;;;;;;;;21.30;54.40;;;;;;5030272;28;20755;-69